createdAt,value
2018-05-08T00:01:37.007Z,3.33
2018-05-08T00:04:06.246Z,3.80
2018-05-08T00:06:36.269Z,3.63
2018-05-08T00:09:06.287Z,3.80
2018-05-08T00:11:36.307Z,3.60
2018-05-08T00:14:05.585Z,4.30
2018-05-08T00:16:36.309Z,3.10
2018-05-08T00:19:07.006Z,3.70
2018-05-08T00:21:36.261Z,3.30
2018-05-08T00:24:06.235Z,3.37
2018-05-08T00:26:35.477Z,3.43
2018-05-08T00:29:05.439Z,3.30
2018-05-08T00:31:34.689Z,3.50
2018-05-08T00:34:04.664Z,3.33
2018-05-08T00:36:33.902Z,3.97
2018-05-08T00:39:04.043Z,3.40
2018-05-08T00:41:33.309Z,3.80
2018-05-08T00:44:02.476Z,3.20
2018-05-08T00:46:31.765Z,4.27
2018-05-08T00:49:01.022Z,3.87
2018-05-08T00:51:30.994Z,4.50
2018-05-08T00:54:00.208Z,4.23
2018-05-08T00:56:29.518Z,4.17
2018-05-08T00:58:59.525Z,3.50
2018-05-08T01:01:30.229Z,3.23
2018-05-08T01:03:59.455Z,4.00
2018-05-08T01:06:28.654Z,4.13
2018-05-08T01:08:57.884Z,4.00
2018-05-08T01:11:27.080Z,3.83
2018-05-08T01:13:56.310Z,3.73
2018-05-08T01:16:25.507Z,3.87
2018-05-08T01:18:55.550Z,3.80
2018-05-08T01:21:24.829Z,4.63
2018-05-08T01:23:54.063Z,4.07
2018-05-08T01:26:23.334Z,4.27
2018-05-08T01:28:52.536Z,4.40
2018-05-08T01:31:23.284Z,4.23
2018-05-08T01:33:52.575Z,4.13
2018-05-08T01:36:21.968Z,4.07
2018-05-08T01:38:51.190Z,4.80
2018-05-08T01:41:20.388Z,4.93
2018-05-08T01:43:50.383Z,4.50
2018-05-08T01:46:19.633Z,4.60
2018-05-08T01:48:48.880Z,4.43
2018-05-08T01:51:18.138Z,4.23
2018-05-08T01:53:47.341Z,3.80
2018-05-08T01:56:16.562Z,4.30
2018-05-08T01:58:45.819Z,3.90
2018-05-08T02:01:15.033Z,4.00
2018-05-08T02:03:44.331Z,3.93
2018-05-08T02:06:13.537Z,4.33
2018-05-08T02:08:42.748Z,4.13
2018-05-08T02:11:12.002Z,4.40
2018-05-08T02:13:41.228Z,4.20
2018-05-08T02:16:10.810Z,4.00
2018-05-08T02:18:40.761Z,3.83
2018-05-08T02:21:09.985Z,4.07
2018-05-08T02:23:39.241Z,4.33
2018-05-08T02:26:08.458Z,4.47
2018-05-08T02:28:37.665Z,4.20
2018-05-08T02:31:06.886Z,4.00
2018-05-08T02:33:36.076Z,4.80
2018-05-08T02:36:05.368Z,4.30
2018-05-08T02:38:34.573Z,4.13
2018-05-08T02:41:03.808Z,4.37
2018-05-08T02:43:33.025Z,4.57
2018-05-08T02:46:02.223Z,4.33
2018-05-08T02:48:31.533Z,4.33
2018-05-08T02:51:00.721Z,4.50
2018-05-08T02:53:29.957Z,4.00
2018-05-08T02:55:59.240Z,4.27
2018-05-08T02:58:28.449Z,4.30
2018-05-08T03:00:57.668Z,3.87
2018-05-08T03:03:27.649Z,5.40
2018-05-08T03:05:56.885Z,4.60
2018-05-08T03:08:26.857Z,4.60
2018-05-08T03:10:56.196Z,4.53
2018-05-08T03:13:25.477Z,4.40
2018-05-08T03:15:56.174Z,3.97
2018-05-08T03:18:25.469Z,4.50
2018-05-08T03:20:54.768Z,4.80
2018-05-08T03:23:24.102Z,4.07
2018-05-08T03:25:53.293Z,4.60
2018-05-08T03:28:22.535Z,4.80
2018-05-08T03:30:52.709Z,4.33
2018-05-08T03:33:22.130Z,4.90
2018-05-08T03:35:51.378Z,4.43
2018-05-08T03:38:20.606Z,5.20
2018-05-08T03:40:49.852Z,4.57
2018-05-08T03:43:19.904Z,5.20
2018-05-08T03:45:49.141Z,4.60
2018-05-08T03:48:18.361Z,4.63
2018-05-08T03:50:48.389Z,4.80
2018-05-08T03:53:18.395Z,4.80
2018-05-08T03:55:48.383Z,5.50
2018-05-08T03:58:17.603Z,5.30
2018-05-08T04:01:04.646Z,5.23
2018-05-08T04:03:52.215Z,5.13
2018-05-08T04:06:31.353Z,5.30
2018-05-08T04:09:00.630Z,4.90
2018-05-08T04:11:30.137Z,5.10
2018-05-08T04:13:59.476Z,5.27
2018-05-08T04:16:29.480Z,4.70
2018-05-08T04:18:58.665Z,5.43
2018-05-08T04:21:27.917Z,5.10
2018-05-08T04:23:57.133Z,5.07
2018-05-08T04:26:26.386Z,5.30
2018-05-08T04:28:55.590Z,5.30
2018-05-08T04:31:25.786Z,5.27
2018-05-08T04:33:55.033Z,5.40
2018-05-08T04:36:24.568Z,5.40
2018-05-08T04:38:53.800Z,5.53
2018-05-08T04:41:23.028Z,5.20
2018-05-08T04:43:52.255Z,5.17
2018-05-08T04:46:21.508Z,5.40
2018-05-08T04:48:50.700Z,5.50
2018-05-08T04:51:20.716Z,5.40
2018-05-08T04:53:49.937Z,5.73
2018-05-08T04:56:19.138Z,5.60
2018-05-08T04:58:48.376Z,6.37
2018-05-08T05:01:17.594Z,5.70
2018-05-08T05:03:47.623Z,5.53
2018-05-08T05:06:17.726Z,6.17
2018-05-08T05:08:47.050Z,6.10
2018-05-08T05:11:16.322Z,6.53
2018-05-08T05:13:47.060Z,7.10
2018-05-08T05:16:16.283Z,6.40
2018-05-08T05:18:46.289Z,6.73
2018-05-08T05:21:16.243Z,5.77
2018-05-08T05:23:45.566Z,5.87
2018-05-08T05:26:14.785Z,7.00
2018-05-08T05:28:44.037Z,5.83
2018-05-08T05:31:13.237Z,6.00
2018-05-08T05:33:42.597Z,5.93
2018-05-08T05:36:12.585Z,6.83
2018-05-08T05:38:41.854Z,6.33
2018-05-08T05:41:11.078Z,6.60
2018-05-08T05:43:40.367Z,5.17
2018-05-08T05:46:09.550Z,5.67
2018-05-08T05:48:38.781Z,5.93
2018-05-08T05:51:08.001Z,5.93
2018-05-08T05:53:38.014Z,6.80
2018-05-08T05:56:08.092Z,6.50
2018-05-08T05:58:37.405Z,6.63
2018-05-08T06:01:06.607Z,6.47
2018-05-08T06:03:36.714Z,6.87
2018-05-08T06:06:06.063Z,6.23
2018-05-08T06:08:36.069Z,6.67
2018-05-08T06:11:06.506Z,5.80
2018-05-08T06:13:36.537Z,7.10
2018-05-08T06:16:05.780Z,6.50
2018-05-08T06:18:34.972Z,6.67
2018-05-08T06:21:04.216Z,6.40
2018-05-08T06:23:33.460Z,7.53
2018-05-08T06:26:02.713Z,7.10
2018-05-08T06:28:32.762Z,6.70
2018-05-08T06:31:02.028Z,6.43
2018-05-08T06:33:32.065Z,6.67
2018-05-08T06:36:01.301Z,7.10
2018-05-08T06:38:30.736Z,6.70
2018-05-08T06:41:00.774Z,7.30
2018-05-08T06:43:30.022Z,8.30
2018-05-08T06:45:59.228Z,6.70
2018-05-08T06:48:28.473Z,6.10
2018-05-08T06:50:57.694Z,6.40
2018-05-08T06:53:26.910Z,6.00
2018-05-08T06:55:56.270Z,6.30
2018-05-08T06:58:25.533Z,6.30
2018-05-08T07:00:54.749Z,6.43
2018-05-08T07:03:24.030Z,6.00
2018-05-08T07:05:54.013Z,6.27
2018-05-08T07:08:23.326Z,6.50
2018-05-08T07:10:52.525Z,6.50
2018-05-08T07:13:21.868Z,6.20
2018-05-08T07:15:52.010Z,5.00
2018-05-08T07:18:21.094Z,5.20
2018-05-08T07:20:50.328Z,4.63
2018-05-08T07:23:19.645Z,6.30
2018-05-08T07:25:48.853Z,5.50
2018-05-08T07:28:18.854Z,3.90
2018-05-08T07:30:48.413Z,4.97
2018-05-08T07:33:17.576Z,5.07
2018-05-08T07:35:47.665Z,4.83
2018-05-08T07:38:16.921Z,5.10
2018-05-08T07:40:46.145Z,5.43
2018-05-08T07:43:15.355Z,5.07
2018-05-08T07:45:44.584Z,5.37
2018-05-08T07:48:14.565Z,5.30
2018-05-08T07:50:44.602Z,5.27
2018-05-08T07:53:13.886Z,5.20
2018-05-08T07:55:43.120Z,5.47
2018-05-08T07:58:13.115Z,5.17
2018-05-08T08:00:42.420Z,5.47
2018-05-08T08:03:11.673Z,4.83
2018-05-08T08:05:40.948Z,4.77
2018-05-08T08:08:10.285Z,4.90
2018-05-08T08:10:39.532Z,5.10
2018-05-08T08:13:09.709Z,5.50
2018-05-08T08:15:39.153Z,5.30
2018-05-08T08:18:10.128Z,5.20
2018-05-08T08:20:40.285Z,4.93
2018-05-08T08:23:09.517Z,4.13
2018-05-08T08:25:38.810Z,4.70
2018-05-08T08:28:08.864Z,5.10
2018-05-08T08:30:38.097Z,4.50
2018-05-08T08:33:07.322Z,5.57
2018-05-08T08:35:37.393Z,5.50
2018-05-08T08:38:06.745Z,4.90
2018-05-08T08:40:36.020Z,4.57
2018-05-08T08:43:05.242Z,4.70
2018-05-08T08:45:34.431Z,4.70
2018-05-08T08:48:04.401Z,4.80
2018-05-08T08:50:33.697Z,4.57
2018-05-08T08:53:03.001Z,4.77
2018-05-08T08:55:32.260Z,5.77
2018-05-08T08:58:02.259Z,4.40
2018-05-08T09:00:31.636Z,4.23
2018-05-08T09:03:00.850Z,4.20
2018-05-08T09:05:30.074Z,4.60
2018-05-08T09:07:59.271Z,4.50
2018-05-08T09:10:28.517Z,4.00
2018-05-08T09:12:57.724Z,3.60
2018-05-08T09:15:26.969Z,3.23
2018-05-08T09:17:56.156Z,3.50
2018-05-08T09:20:26.134Z,3.40
2018-05-08T09:22:55.339Z,3.70
2018-05-08T09:25:24.553Z,3.93
2018-05-08T09:27:54.532Z,3.20
2018-05-08T09:30:23.870Z,3.50
2018-05-08T09:32:53.992Z,3.33
2018-05-08T09:35:23.167Z,3.43
2018-05-08T09:37:52.454Z,3.70
2018-05-08T09:40:21.668Z,3.07
2018-05-08T09:42:52.379Z,2.90
2018-05-08T09:45:21.653Z,3.30
2018-05-08T09:47:50.861Z,3.43
2018-05-08T09:50:20.155Z,3.77
2018-05-08T09:52:49.399Z,2.53
2018-05-08T09:55:19.382Z,3.43
2018-05-08T09:57:48.689Z,3.30
2018-05-08T10:00:17.888Z,2.93
2018-05-08T10:02:47.905Z,3.47
2018-05-08T10:05:17.156Z,2.90
2018-05-08T10:07:47.136Z,3.40
2018-05-08T10:10:16.373Z,3.10
2018-05-08T10:12:45.593Z,3.73
2018-05-08T10:15:14.924Z,2.90
2018-05-08T10:17:44.138Z,3.30
2018-05-08T10:20:13.339Z,2.80
2018-05-08T10:22:42.706Z,3.07
2018-05-08T10:25:11.960Z,2.60
2018-05-08T10:27:41.953Z,2.50
2018-05-08T10:30:11.222Z,3.30
2018-05-08T10:32:40.641Z,3.10
2018-05-08T10:35:10.011Z,3.07
2018-05-08T10:37:39.221Z,3.00
2018-05-08T10:40:08.477Z,2.40
2018-05-08T10:42:37.913Z,2.47
2018-05-08T10:45:07.027Z,2.87
2018-05-08T10:47:36.304Z,2.50
2018-05-08T10:50:05.576Z,2.80
2018-05-08T10:52:34.820Z,2.90
2018-05-08T10:55:04.093Z,2.90
2018-05-08T10:57:33.311Z,2.73
2018-05-08T11:00:02.631Z,2.87
2018-05-08T11:02:33.364Z,3.23
2018-05-08T11:05:02.597Z,3.33
2018-05-08T11:07:31.824Z,2.93
2018-05-08T11:10:01.018Z,2.37
2018-05-08T11:12:30.372Z,2.47
2018-05-08T11:14:59.498Z,2.50
2018-05-08T11:17:28.745Z,2.40
2018-05-08T11:19:57.979Z,2.87
2018-05-08T11:22:27.957Z,3.07
2018-05-08T11:24:57.150Z,2.67
2018-05-08T11:27:26.531Z,2.53
2018-05-08T11:29:55.734Z,2.10
2018-05-08T11:32:24.959Z,2.47
2018-05-08T11:34:54.155Z,2.20
2018-05-08T11:37:23.381Z,2.10
2018-05-08T11:39:52.619Z,2.00
2018-05-08T11:42:21.877Z,2.30
2018-05-08T11:44:51.863Z,2.60
2018-05-08T11:47:21.065Z,2.37
2018-05-08T11:49:51.046Z,2.47
2018-05-08T11:52:20.290Z,2.33
2018-05-08T11:54:50.440Z,3.60
2018-05-08T11:57:19.686Z,2.30
2018-05-08T11:59:49.082Z,2.10
2018-05-08T12:02:18.353Z,1.97
2018-05-08T12:04:47.581Z,3.20
2018-05-08T12:07:16.796Z,1.87
2018-05-08T12:09:46.040Z,1.60
2018-05-08T12:12:16.005Z,1.80
2018-05-08T12:14:45.254Z,2.13
2018-05-08T12:17:15.185Z,2.00
2018-05-08T12:19:44.391Z,1.50
2018-05-08T12:22:13.592Z,1.77
2018-05-08T12:24:42.825Z,1.63
2018-05-08T12:27:12.823Z,1.80
2018-05-08T12:29:42.078Z,2.13
2018-05-08T12:32:11.283Z,2.23
2018-05-08T12:34:40.509Z,2.27
2018-05-08T12:37:09.718Z,1.97
2018-05-08T12:39:38.927Z,2.27
2018-05-08T12:42:08.196Z,1.80
2018-05-08T12:44:38.280Z,2.13
2018-05-08T12:47:08.248Z,1.87
2018-05-08T12:49:37.498Z,2.00
2018-05-08T12:52:06.692Z,2.10
2018-05-08T12:54:36.994Z,1.70
2018-05-08T12:57:06.376Z,1.67
2018-05-08T12:59:35.574Z,2.17
2018-05-08T13:02:05.600Z,1.83
2018-05-08T13:04:35.594Z,1.90
2018-05-08T13:07:04.973Z,2.23
2018-05-08T13:09:34.170Z,2.00
2018-05-08T13:12:03.381Z,2.10
2018-05-08T13:14:32.570Z,1.97
2018-05-08T13:17:01.775Z,1.73
2018-05-08T13:19:31.003Z,2.00
2018-05-08T13:22:01.106Z,1.60
2018-05-08T13:24:30.320Z,1.97
2018-05-08T13:27:00.298Z,2.17
2018-05-08T13:29:29.529Z,1.97
2018-05-08T13:31:58.821Z,1.70
2018-05-08T13:34:28.815Z,1.80
2018-05-08T13:36:58.024Z,1.77
2018-05-08T13:39:27.280Z,2.17
2018-05-08T13:41:56.550Z,1.70
2018-05-08T13:44:25.782Z,2.37
2018-05-08T13:46:55.717Z,1.63
2018-05-08T13:49:26.482Z,1.83
2018-05-08T13:51:55.695Z,1.60
2018-05-08T13:54:25.700Z,1.60
2018-05-08T13:56:54.966Z,1.70
2018-05-08T13:59:24.225Z,2.00
2018-05-08T14:01:53.449Z,2.00
2018-05-08T14:04:22.703Z,2.10
2018-05-08T14:06:52.737Z,2.50
2018-05-08T14:09:21.931Z,1.80
2018-05-08T14:11:51.245Z,1.63
2018-05-08T14:14:21.463Z,1.70
2018-05-08T14:16:51.482Z,1.87
2018-05-08T14:19:21.534Z,2.00
2018-05-08T14:21:50.673Z,2.03
2018-05-08T14:24:20.710Z,2.07
2018-05-08T14:26:50.695Z,2.00
2018-05-08T14:29:20.786Z,2.07
2018-05-08T14:31:50.010Z,2.10
2018-05-08T14:34:20.493Z,1.93
2018-05-08T14:36:49.740Z,2.00
2018-05-08T14:39:19.725Z,1.87
2018-05-08T14:41:48.949Z,2.53
2018-05-08T14:44:18.992Z,2.57
2018-05-08T14:46:48.238Z,2.00
2018-05-08T14:49:17.515Z,1.80
2018-05-08T14:51:46.762Z,2.03
2018-05-08T14:54:16.956Z,2.30
2018-05-08T14:56:46.184Z,1.97
2018-05-08T14:59:15.397Z,2.20
2018-05-08T15:01:44.831Z,2.10
2018-05-08T15:04:14.120Z,1.87
2018-05-08T15:06:43.226Z,2.10
2018-05-08T15:09:12.474Z,2.30
2018-05-08T15:11:42.461Z,2.20
2018-05-08T15:14:11.691Z,1.93
2018-05-08T15:16:40.972Z,2.50
2018-05-08T15:19:10.174Z,2.10
2018-05-08T15:21:40.214Z,1.67
2018-05-08T15:24:09.399Z,1.80
2018-05-08T15:26:39.374Z,1.97
2018-05-08T15:29:08.634Z,1.70
2018-05-08T15:31:37.785Z,2.20
2018-05-08T15:34:07.078Z,2.10
2018-05-08T15:36:36.269Z,2.20
2018-05-08T15:39:06.417Z,2.20
2018-05-08T15:41:36.424Z,2.17
2018-05-08T15:44:06.421Z,1.70
2018-05-08T15:46:35.641Z,2.00
2018-05-08T15:49:05.066Z,2.33
2018-05-08T15:51:34.334Z,1.83
2018-05-08T15:54:05.062Z,1.67
2018-05-08T15:56:35.067Z,2.10
2018-05-08T15:59:04.269Z,1.90
2018-05-08T16:01:33.553Z,2.00
2018-05-08T16:04:02.763Z,2.40
2018-05-08T16:06:31.994Z,2.03
2018-05-08T16:09:01.982Z,1.90
2018-05-08T16:11:31.363Z,2.00
2018-05-08T16:14:00.562Z,2.20
2018-05-08T16:16:29.814Z,1.93
2018-05-08T16:18:59.916Z,2.30
2018-05-08T16:21:29.421Z,2.17
2018-05-08T16:23:58.748Z,2.17
2018-05-08T16:26:28.709Z,2.20
2018-05-08T16:28:57.910Z,1.90
2018-05-08T16:31:27.157Z,2.30
2018-05-08T16:33:56.423Z,2.10
2018-05-08T16:36:25.639Z,1.83
2018-05-08T16:38:55.637Z,1.90
2018-05-08T16:41:24.981Z,2.23
2018-05-08T16:43:54.211Z,1.93
2018-05-08T16:46:23.459Z,2.53
2018-05-08T16:48:54.476Z,2.00
2018-05-08T16:51:23.734Z,2.03
2018-05-08T16:53:53.153Z,2.80
2018-05-08T16:56:22.303Z,2.20
2018-05-08T16:58:51.584Z,2.33
2018-05-08T17:01:20.794Z,2.07
2018-05-08T17:03:50.046Z,2.40
2018-05-08T17:06:19.268Z,2.40
2018-05-08T17:08:48.526Z,1.87
2018-05-08T17:11:17.751Z,2.40
2018-05-08T17:13:47.216Z,2.23
2018-05-08T17:16:16.464Z,2.60
2018-05-08T17:18:45.721Z,2.17
2018-05-08T17:21:14.902Z,2.50
2018-05-08T17:23:44.124Z,2.30
2018-05-08T17:26:13.313Z,2.40
2018-05-08T17:28:42.579Z,2.50
2018-05-08T17:31:12.576Z,2.90
2018-05-08T17:33:42.599Z,2.50
2018-05-08T17:36:11.945Z,2.60
2018-05-08T17:38:41.080Z,2.30
2018-05-08T17:41:10.291Z,2.60
2018-05-08T17:43:40.289Z,2.20
2018-05-08T17:46:09.538Z,2.40
2018-05-08T17:48:38.769Z,2.53
2018-05-08T17:51:08.026Z,2.30
2018-05-08T17:53:37.234Z,2.77
2018-05-08T17:56:06.458Z,2.37
2018-05-08T17:58:35.641Z,2.63
2018-05-08T18:01:04.857Z,2.90
2018-05-08T18:03:35.693Z,2.80
2018-05-08T18:06:04.915Z,2.90
2018-05-08T18:08:34.929Z,3.00
2018-05-08T18:11:05.050Z,3.00
2018-05-08T18:13:35.051Z,2.73
2018-05-08T18:16:04.264Z,2.90
2018-05-08T18:18:34.255Z,2.53
2018-05-08T18:21:03.503Z,2.60
2018-05-08T18:23:32.763Z,2.63
2018-05-08T18:26:02.665Z,2.80
2018-05-08T18:28:32.645Z,2.40
2018-05-08T18:31:02.021Z,2.80
2018-05-08T18:33:31.285Z,2.60
2018-05-08T18:36:00.485Z,2.87
2018-05-08T18:38:29.823Z,2.97
2018-05-08T18:41:00.152Z,3.33
2018-05-08T18:43:29.375Z,3.13
2018-05-08T18:45:58.619Z,2.70
2018-05-08T18:48:27.839Z,3.00
2018-05-08T18:50:57.090Z,2.70
2018-05-08T18:53:26.325Z,2.70
2018-05-08T18:55:56.349Z,3.00
2018-05-08T18:58:27.031Z,3.30
2018-05-08T19:00:56.578Z,2.80
2018-05-08T19:03:26.686Z,3.00
2018-05-08T19:05:55.927Z,3.60
2018-05-08T19:08:25.842Z,3.17
2018-05-08T19:11:00.614Z,2.57
2018-05-08T19:13:29.840Z,3.27
2018-05-08T19:16:04.177Z,2.83
2018-05-08T19:18:38.927Z,2.83
2018-05-08T19:21:08.160Z,3.10
2018-05-08T19:23:37.349Z,3.43
2018-05-08T19:26:06.603Z,3.37
2018-05-08T19:28:42.066Z,3.50
2018-05-08T19:31:11.326Z,2.80
2018-05-08T19:33:41.299Z,2.97
2018-05-08T19:36:16.018Z,3.33
2018-05-08T19:38:45.334Z,3.93
2018-05-08T19:41:16.101Z,3.50
2018-05-08T19:43:45.454Z,2.97
2018-05-08T19:46:15.665Z,2.70
2018-05-08T19:48:44.907Z,3.23
2018-05-08T19:51:15.077Z,2.80
2018-05-08T19:53:44.331Z,3.37
2018-05-08T19:56:13.742Z,2.50
2018-05-08T19:58:43.738Z,3.40
2018-05-08T20:01:13.742Z,2.90
2018-05-08T20:03:43.611Z,2.40
2018-05-08T20:06:12.871Z,2.70
2018-05-08T20:08:42.939Z,2.50
2018-05-08T20:11:12.162Z,2.23
2018-05-08T20:13:41.378Z,2.50
2018-05-08T20:16:11.472Z,2.33
2018-05-08T20:18:40.704Z,2.30
2018-05-08T20:21:10.774Z,2.40
2018-05-08T20:23:39.990Z,2.67
2018-05-08T20:26:09.268Z,2.30
2018-05-08T20:28:38.490Z,2.40
2018-05-08T20:31:09.194Z,2.80
2018-05-08T20:33:38.442Z,2.90
2018-05-08T20:36:08.508Z,2.53
2018-05-08T20:38:37.690Z,2.67
2018-05-08T20:41:06.929Z,3.10
2018-05-08T20:43:37.794Z,2.70
2018-05-08T20:46:07.054Z,2.67
2018-05-08T20:48:36.284Z,3.03
2018-05-08T20:51:05.543Z,2.53
2018-05-08T20:53:34.777Z,2.97
2018-05-08T20:56:04.013Z,2.70
2018-05-08T20:58:33.419Z,2.97
2018-05-08T21:01:02.800Z,2.60
2018-05-08T21:03:32.020Z,2.47
2018-05-08T21:06:01.978Z,2.40
2018-05-08T21:08:31.190Z,2.77
2018-05-08T21:11:01.420Z,2.73
2018-05-08T21:13:31.381Z,2.57
2018-05-08T21:16:00.602Z,2.63
2018-05-08T21:18:29.857Z,2.63
2018-05-08T21:20:59.886Z,2.87
2018-05-08T21:23:29.088Z,3.10
2018-05-08T21:25:59.129Z,2.70
2018-05-08T21:28:33.827Z,2.40
2018-05-08T21:31:08.871Z,2.50
2018-05-08T21:33:38.095Z,2.97
2018-05-08T21:36:07.324Z,2.90
2018-05-08T21:38:37.306Z,2.87
2018-05-08T21:41:06.571Z,2.70
2018-05-08T21:43:35.786Z,3.10
2018-05-08T21:46:05.205Z,2.90
2018-05-08T21:48:34.441Z,2.70
2018-05-08T21:51:03.653Z,3.40
2018-05-08T21:53:32.890Z,3.27
2018-05-08T21:56:02.175Z,2.87
2018-05-08T21:58:31.386Z,2.90
2018-05-08T22:01:00.622Z,2.83
2018-05-08T22:03:30.601Z,2.90
2018-05-08T22:05:59.843Z,3.20
2018-05-08T22:08:29.090Z,3.03
2018-05-08T22:10:58.329Z,3.00
2018-05-08T22:13:27.550Z,2.73
2018-05-08T22:15:56.776Z,2.90
2018-05-08T22:18:25.994Z,2.93
2018-05-08T22:20:55.205Z,2.97
2018-05-08T22:23:24.423Z,3.73
2018-05-08T22:25:53.662Z,3.27
2018-05-08T22:28:22.894Z,3.13
2018-05-08T22:30:52.115Z,3.40
2018-05-08T22:33:21.314Z,3.03
2018-05-08T22:35:50.541Z,3.23
2018-05-08T22:38:19.738Z,3.57
2018-05-08T22:40:49.010Z,3.30
2018-05-08T22:43:18.989Z,3.30
2018-05-08T22:45:48.228Z,3.70
2018-05-08T22:48:18.198Z,3.37
2018-05-08T22:50:47.413Z,3.53
2018-05-08T22:53:16.633Z,3.83
2018-05-08T22:55:46.642Z,4.27
2018-05-08T22:58:16.030Z,3.93
2018-05-08T23:00:45.261Z,3.60
2018-05-08T23:03:14.497Z,3.47
2018-05-08T23:05:43.703Z,3.97
2018-05-08T23:08:12.921Z,3.90
2018-05-08T23:10:42.175Z,4.03
2018-05-08T23:13:11.364Z,3.43
2018-05-08T23:15:40.556Z,3.57
2018-05-08T23:18:09.834Z,4.20
2018-05-08T23:20:38.988Z,3.93
2018-05-08T23:23:08.242Z,3.63
2018-05-08T23:25:38.193Z,3.87
2018-05-08T23:28:07.414Z,3.57
2018-05-08T23:30:36.625Z,3.80
2018-05-08T23:33:06.053Z,3.43
2018-05-08T23:35:35.245Z,3.73
2018-05-08T23:38:05.211Z,4.13
2018-05-08T23:40:34.500Z,3.40
2018-05-08T23:43:03.713Z,3.80
2018-05-08T23:45:34.426Z,3.70
2018-05-08T23:48:03.668Z,4.37
2018-05-08T23:50:33.662Z,3.93
2018-05-08T23:53:02.922Z,3.40
2018-05-08T23:55:32.157Z,3.87
2018-05-08T23:58:01.348Z,3.77
